sensor_id;sensor_type;location;lat;lon;timestamp;pressure;altitude;pressure_sealevel;temperature
29423;BMP180;16399;51.686;8.684;2023-04-01T00:00:31;97787.00;;;9.90
29423;BMP180;16399;51.686;8.684;2023-04-01T00:03:34;97786.00;;;9.90
29423;BMP180;16399;51.686;8.684;2023-04-01T00:06:37;97789.00;;;9.90
29423;BMP180;16399;51.686;8.684;2023-04-01T00:09:39;97791.00;;;9.90
29423;BMP180;16399;51.686;8.684;2023-04-01T00:12:42;97790.00;;;9.90
29423;BMP180;16399;51.686;8.684;2023-04-01T00:15:44;97786.00;;;9.90
29423;BMP180;16399;51.686;8.684;2023-04-01T00:18:47;97780.00;;;9.90
29423;BMP180;16399;51.686;8.684;2023-04-01T00:21:50;97788.00;;;9.90
29423;BMP180;16399;51.686;8.684;2023-04-01T00:24:53;97785.00;;;9.90
29423;BMP180;16399;51.686;8.684;2023-04-01T00:27:56;97784.00;;;9.90
29423;BMP180;16399;51.686;8.684;2023-04-01T00:30:58;97769.00;;;9.90
29423;BMP180;16399;51.686;8.684;2023-04-01T00:34:00;97769.00;;;9.90
29423;BMP180;16399;51.686;8.684;2023-04-01T00:37:03;97775.00;;;9.90
29423;BMP180;16399;51.686;8.684;2023-04-01T00:40:07;97777.00;;;9.90
29423;BMP180;16399;51.686;8.684;2023-04-01T00:43:18;97767.00;;;9.90
29423;BMP180;16399;51.686;8.684;2023-04-01T00:46:21;97757.00;;;9.90
29423;BMP180;16399;51.686;8.684;2023-04-01T00:49:26;97761.00;;;9.90
29423;BMP180;16399;51.686;8.684;2023-04-01T00:52:29;97765.00;;;9.90
29423;BMP180;16399;51.686;8.684;2023-04-01T00:55:33;97755.00;;;9.90
29423;BMP180;16399;51.686;8.684;2023-04-01T00:58:40;97760.00;;;10.00
29423;BMP180;16399;51.686;8.684;2023-04-01T01:01:42;97758.00;;;10.00
29423;BMP180;16399;51.686;8.684;2023-04-01T01:04:44;97749.00;;;10.00
29423;BMP180;16399;51.686;8.684;2023-04-01T01:08:01;97754.00;;;9.90
29423;BMP180;16399;51.686;8.684;2023-04-01T01:11:01;97759.00;;;10.00
29423;BMP180;16399;51.686;8.684;2023-04-01T01:14:25;97749.00;;;10.00
29423;BMP180;16399;51.686;8.684;2023-04-01T01:17:56;97753.00;;;10.00
29423;BMP180;16399;51.686;8.684;2023-04-01T01:21:22;97750.00;;;10.00
29423;BMP180;16399;51.686;8.684;2023-04-01T01:27:40;97737.00;;;10.00
29423;BMP180;16399;51.686;8.684;2023-04-01T01:30:56;97743.00;;;10.00
29423;BMP180;16399;51.686;8.684;2023-04-01T01:34:28;97734.00;;;9.90
29423;BMP180;16399;51.686;8.684;2023-04-01T01:37:30;97744.00;;;9.90
29423;BMP180;16399;51.686;8.684;2023-04-01T01:40:34;97733.00;;;9.80
29423;BMP180;16399;51.686;8.684;2023-04-01T01:43:43;97738.00;;;9.80
29423;BMP180;16399;51.686;8.684;2023-04-01T01:46:47;97745.00;;;9.80
29423;BMP180;16399;51.686;8.684;2023-04-01T01:49:51;97739.00;;;9.70
29423;BMP180;16399;51.686;8.684;2023-04-01T01:53:09;97747.00;;;9.70
29423;BMP180;16399;51.686;8.684;2023-04-01T01:56:06;97740.00;;;9.60
29423;BMP180;16399;51.686;8.684;2023-04-01T01:59:10;97746.00;;;9.60
29423;BMP180;16399;51.686;8.684;2023-04-01T02:02:14;97740.00;;;9.60
29423;BMP180;16399;51.686;8.684;2023-04-01T02:05:19;97744.00;;;9.60
29423;BMP180;16399;51.686;8.684;2023-04-01T02:08:36;97736.00;;;9.60
29423;BMP180;16399;51.686;8.684;2023-04-01T02:11:57;97745.00;;;9.50
29423;BMP180;16399;51.686;8.684;2023-04-01T02:15:05;97740.00;;;9.60
29423;BMP180;16399;51.686;8.684;2023-04-01T02:18:10;97737.00;;;9.60
29423;BMP180;16399;51.686;8.684;2023-04-01T02:21:13;97734.00;;;9.60
29423;BMP180;16399;51.686;8.684;2023-04-01T02:24:17;97740.00;;;9.70
29423;BMP180;16399;51.686;8.684;2023-04-01T02:27:23;97734.00;;;9.70
29423;BMP180;16399;51.686;8.684;2023-04-01T02:30:28;97737.00;;;9.70
29423;BMP180;16399;51.686;8.684;2023-04-01T02:33:31;97741.00;;;9.70
29423;BMP180;16399;51.686;8.684;2023-04-01T02:36:35;97731.00;;;9.70
29423;BMP180;16399;51.686;8.684;2023-04-01T02:39:38;97726.00;;;9.80
29423;BMP180;16399;51.686;8.684;2023-04-01T02:42:40;97737.00;;;9.80
29423;BMP180;16399;51.686;8.684;2023-04-01T02:45:43;97737.00;;;9.80
29423;BMP180;16399;51.686;8.684;2023-04-01T02:48:45;97745.00;;;9.80
29423;BMP180;16399;51.686;8.684;2023-04-01T02:51:48;97739.00;;;9.80
29423;BMP180;16399;51.686;8.684;2023-04-01T02:54:50;97738.00;;;9.80
29423;BMP180;16399;51.686;8.684;2023-04-01T02:57:52;97740.00;;;9.90
29423;BMP180;16399;51.686;8.684;2023-04-01T03:00:55;97740.00;;;9.90
29423;BMP180;16399;51.686;8.684;2023-04-01T03:03:57;97735.00;;;9.90
29423;BMP180;16399;51.686;8.684;2023-04-01T03:06:59;97738.00;;;9.90
29423;BMP180;16399;51.686;8.684;2023-04-01T03:10:02;97734.00;;;9.90
29423;BMP180;16399;51.686;8.684;2023-04-01T03:13:04;97737.00;;;9.90
29423;BMP180;16399;51.686;8.684;2023-04-01T03:16:07;97744.00;;;9.90
29423;BMP180;16399;51.686;8.684;2023-04-01T03:19:09;97743.00;;;9.90
29423;BMP180;16399;51.686;8.684;2023-04-01T03:22:12;97739.00;;;9.90
29423;BMP180;16399;51.686;8.684;2023-04-01T03:25:14;97752.00;;;9.90
29423;BMP180;16399;51.686;8.684;2023-04-01T03:28:16;97745.00;;;9.90
29423;BMP180;16399;51.686;8.684;2023-04-01T03:31:19;97750.00;;;9.80
29423;BMP180;16399;51.686;8.684;2023-04-01T03:34:21;97748.00;;;9.80
29423;BMP180;16399;51.686;8.684;2023-04-01T03:37:24;97754.00;;;9.80
29423;BMP180;16399;51.686;8.684;2023-04-01T03:40:26;97750.00;;;9.80
29423;BMP180;16399;51.686;8.684;2023-04-01T03:43:28;97759.00;;;9.80
29423;BMP180;16399;51.686;8.684;2023-04-01T03:46:31;97760.00;;;9.70
29423;BMP180;16399;51.686;8.684;2023-04-01T03:49:33;97759.00;;;9.70
29423;BMP180;16399;51.686;8.684;2023-04-01T03:52:35;97766.00;;;9.60
29423;BMP180;16399;51.686;8.684;2023-04-01T03:55:38;97754.00;;;9.60
29423;BMP180;16399;51.686;8.684;2023-04-01T03:58:41;97758.00;;;9.50
29423;BMP180;16399;51.686;8.684;2023-04-01T04:01:43;97769.00;;;9.50
29423;BMP180;16399;51.686;8.684;2023-04-01T04:04:46;97766.00;;;9.40
29423;BMP180;16399;51.686;8.684;2023-04-01T04:07:48;97771.00;;;9.40
29423;BMP180;16399;51.686;8.684;2023-04-01T04:10:55;97768.00;;;9.40
29423;BMP180;16399;51.686;8.684;2023-04-01T04:13:57;97776.00;;;9.30
29423;BMP180;16399;51.686;8.684;2023-04-01T04:16:59;97779.00;;;9.30
29423;BMP180;16399;51.686;8.684;2023-04-01T04:20:02;97774.00;;;9.30
29423;BMP180;16399;51.686;8.684;2023-04-01T04:23:05;97760.00;;;9.30
29423;BMP180;16399;51.686;8.684;2023-04-01T04:26:09;97768.00;;;9.20
29423;BMP180;16399;51.686;8.684;2023-04-01T04:29:11;97772.00;;;9.20
29423;BMP180;16399;51.686;8.684;2023-04-01T04:32:14;97768.00;;;9.10
29423;BMP180;16399;51.686;8.684;2023-04-01T04:35:16;97777.00;;;9.10
29423;BMP180;16399;51.686;8.684;2023-04-01T04:38:18;97770.00;;;9.00
29423;BMP180;16399;51.686;8.684;2023-04-01T04:41:22;97770.00;;;9.00
29423;BMP180;16399;51.686;8.684;2023-04-01T04:44:25;97757.00;;;9.00
29423;BMP180;16399;51.686;8.684;2023-04-01T04:47:27;97762.00;;;9.00
29423;BMP180;16399;51.686;8.684;2023-04-01T04:50:29;97769.00;;;9.00
29423;BMP180;16399;51.686;8.684;2023-04-01T04:53:32;97768.00;;;9.00
29423;BMP180;16399;51.686;8.684;2023-04-01T04:56:34;97768.00;;;8.90
29423;BMP180;16399;51.686;8.684;2023-04-01T04:59:37;97760.00;;;8.90
29423;BMP180;16399;51.686;8.684;2023-04-01T05:02:39;97761.00;;;8.90
29423;BMP180;16399;51.686;8.684;2023-04-01T05:05:53;97773.00;;;8.90
29423;BMP180;16399;51.686;8.684;2023-04-01T05:08:52;97760.00;;;8.90
29423;BMP180;16399;51.686;8.684;2023-04-01T05:11:55;97755.00;;;8.90
29423;BMP180;16399;51.686;8.684;2023-04-01T05:14:57;97755.00;;;8.90
29423;BMP180;16399;51.686;8.684;2023-04-01T05:17:59;97770.00;;;8.80
29423;BMP180;16399;51.686;8.684;2023-04-01T05:21:01;97759.00;;;8.80
29423;BMP180;16399;51.686;8.684;2023-04-01T05:24:07;97761.00;;;8.80
29423;BMP180;16399;51.686;8.684;2023-04-01T05:27:10;97775.00;;;8.80
29423;BMP180;16399;51.686;8.684;2023-04-01T05:30:12;97770.00;;;8.80
29423;BMP180;16399;51.686;8.684;2023-04-01T05:33:14;97765.00;;;8.80
29423;BMP180;16399;51.686;8.684;2023-04-01T05:36:16;97762.00;;;8.80
29423;BMP180;16399;51.686;8.684;2023-04-01T05:39:19;97773.00;;;8.80
29423;BMP180;16399;51.686;8.684;2023-04-01T05:42:21;97775.00;;;8.90
29423;BMP180;16399;51.686;8.684;2023-04-01T05:45:23;97772.00;;;8.90
29423;BMP180;16399;51.686;8.684;2023-04-01T05:48:26;97773.00;;;9.00
29423;BMP180;16399;51.686;8.684;2023-04-01T05:51:28;97775.00;;;9.00
29423;BMP180;16399;51.686;8.684;2023-04-01T05:54:33;97779.00;;;9.10
29423;BMP180;16399;51.686;8.684;2023-04-01T05:57:35;97779.00;;;9.10
29423;BMP180;16399;51.686;8.684;2023-04-01T06:00:38;97785.00;;;9.10
29423;BMP180;16399;51.686;8.684;2023-04-01T06:03:40;97792.00;;;9.20
29423;BMP180;16399;51.686;8.684;2023-04-01T06:06:43;97793.00;;;9.20
29423;BMP180;16399;51.686;8.684;2023-04-01T06:09:45;97796.00;;;9.20
29423;BMP180;16399;51.686;8.684;2023-04-01T06:13:06;97802.00;;;9.20
29423;BMP180;16399;51.686;8.684;2023-04-01T06:19:46;97800.00;;;9.20
29423;BMP180;16399;51.686;8.684;2023-04-01T06:26:19;97807.00;;;9.20
29423;BMP180;16399;51.686;8.684;2023-04-01T06:29:50;97811.00;;;9.20
29423;BMP180;16399;51.686;8.684;2023-04-01T06:36:58;97814.00;;;9.20
29423;BMP180;16399;51.686;8.684;2023-04-01T06:43:24;97819.00;;;9.30
29423;BMP180;16399;51.686;8.684;2023-04-01T06:46:45;97812.00;;;9.30
29423;BMP180;16399;51.686;8.684;2023-04-01T06:49:55;97816.00;;;9.40
29423;BMP180;16399;51.686;8.684;2023-04-01T06:53:28;97817.00;;;9.40
29423;BMP180;16399;51.686;8.684;2023-04-01T06:56:18;97815.00;;;9.50
29423;BMP180;16399;51.686;8.684;2023-04-01T06:59:25;97815.00;;;9.60
29423;BMP180;16399;51.686;8.684;2023-04-01T07:05:46;97829.00;;;9.70
29423;BMP180;16399;51.686;8.684;2023-04-01T07:08:49;97820.00;;;9.70
29423;BMP180;16399;51.686;8.684;2023-04-01T07:11:56;97827.00;;;9.80
29423;BMP180;16399;51.686;8.684;2023-04-01T07:18:19;97816.00;;;9.90
29423;BMP180;16399;51.686;8.684;2023-04-01T07:21:27;97830.00;;;9.90
29423;BMP180;16399;51.686;8.684;2023-04-01T07:24:37;97827.00;;;10.00
29423;BMP180;16399;51.686;8.684;2023-04-01T07:27:41;97838.00;;;10.10
29423;BMP180;16399;51.686;8.684;2023-04-01T07:31:07;97829.00;;;10.10
29423;BMP180;16399;51.686;8.684;2023-04-01T07:34:24;97824.00;;;10.20
29423;BMP180;16399;51.686;8.684;2023-04-01T07:37:34;97835.00;;;10.30
29423;BMP180;16399;51.686;8.684;2023-04-01T07:47:14;97838.00;;;10.50
29423;BMP180;16399;51.686;8.684;2023-04-01T07:50:41;97847.00;;;10.60
29423;BMP180;16399;51.686;8.684;2023-04-01T07:57:23;97846.00;;;10.70
29423;BMP180;16399;51.686;8.684;2023-04-01T08:00:27;97859.00;;;10.80
29423;BMP180;16399;51.686;8.684;2023-04-01T08:07:24;97858.00;;;10.90
29423;BMP180;16399;51.686;8.684;2023-04-01T08:17:28;97879.00;;;11.20
29423;BMP180;16399;51.686;8.684;2023-04-01T08:20:54;97886.00;;;11.20
29423;BMP180;16399;51.686;8.684;2023-04-01T08:23:59;97876.00;;;11.30
29423;BMP180;16399;51.686;8.684;2023-04-01T08:27:06;97872.00;;;11.30
29423;BMP180;16399;51.686;8.684;2023-04-01T08:30:25;97883.00;;;11.40
29423;BMP180;16399;51.686;8.684;2023-04-01T08:33:30;97897.00;;;11.40
29423;BMP180;16399;51.686;8.684;2023-04-01T08:36:38;97891.00;;;11.40
29423;BMP180;16399;51.686;8.684;2023-04-01T08:39:50;97886.00;;;11.40
29423;BMP180;16399;51.686;8.684;2023-04-01T08:46:25;97895.00;;;11.50
29423;BMP180;16399;51.686;8.684;2023-04-01T08:49:32;97898.00;;;11.60
29423;BMP180;16399;51.686;8.684;2023-04-01T08:52:51;97884.00;;;11.70
29423;BMP180;16399;51.686;8.684;2023-04-01T08:56:17;97888.00;;;11.80
29423;BMP180;16399;51.686;8.684;2023-04-01T08:59:16;97891.00;;;11.90
29423;BMP180;16399;51.686;8.684;2023-04-01T09:02:46;97896.00;;;12.10
29423;BMP180;16399;51.686;8.684;2023-04-01T09:06:11;97904.00;;;12.30
29423;BMP180;16399;51.686;8.684;2023-04-01T09:09:34;97900.00;;;12.60
29423;BMP180;16399;51.686;8.684;2023-04-01T09:19:20;97907.00;;;12.80
29423;BMP180;16399;51.686;8.684;2023-04-01T09:22:31;97907.00;;;12.70
29423;BMP180;16399;51.686;8.684;2023-04-01T09:25:38;97910.00;;;12.70
29423;BMP180;16399;51.686;8.684;2023-04-01T09:28:45;97914.00;;;12.70
29423;BMP180;16399;51.686;8.684;2023-04-01T09:35:30;97927.00;;;12.50
29423;BMP180;16399;51.686;8.684;2023-04-01T09:44:58;97935.00;;;12.40
29423;BMP180;16399;51.686;8.684;2023-04-01T09:48:12;97942.00;;;12.40
29423;BMP180;16399;51.686;8.684;2023-04-01T09:54:55;97938.00;;;12.40
29423;BMP180;16399;51.686;8.684;2023-04-01T10:04:54;97958.00;;;12.20
29423;BMP180;16399;51.686;8.684;2023-04-01T10:08:12;97946.00;;;12.20
29423;BMP180;16399;51.686;8.684;2023-04-01T10:14:52;97963.00;;;12.10
29423;BMP180;16399;51.686;8.684;2023-04-01T10:25:05;97969.00;;;12.10
29423;BMP180;16399;51.686;8.684;2023-04-01T10:28:14;97963.00;;;12.20
29423;BMP180;16399;51.686;8.684;2023-04-01T10:34:55;97974.00;;;12.40
29423;BMP180;16399;51.686;8.684;2023-04-01T10:38:10;97971.00;;;12.40
29423;BMP180;16399;51.686;8.684;2023-04-01T10:44:27;97976.00;;;12.50
29423;BMP180;16399;51.686;8.684;2023-04-01T10:51:10;97986.00;;;12.30
29423;BMP180;16399;51.686;8.684;2023-04-01T10:54:18;97986.00;;;12.10
29423;BMP180;16399;51.686;8.684;2023-04-01T11:01:02;98000.00;;;11.90
29423;BMP180;16399;51.686;8.684;2023-04-01T11:11:20;97996.00;;;11.80
29423;BMP180;16399;51.686;8.684;2023-04-01T11:14:40;98000.00;;;11.80
29423;BMP180;16399;51.686;8.684;2023-04-01T11:18:09;98005.00;;;11.90
29423;BMP180;16399;51.686;8.684;2023-04-01T11:24:33;98007.00;;;11.90
29423;BMP180;16399;51.686;8.684;2023-04-01T11:34:57;98003.00;;;11.90
29423;BMP180;16399;51.686;8.684;2023-04-01T11:38:20;98009.00;;;12.00
29423;BMP180;16399;51.686;8.684;2023-04-01T11:41:44;98006.00;;;12.10
29423;BMP180;16399;51.686;8.684;2023-04-01T11:45:21;98013.00;;;12.20
29423;BMP180;16399;51.686;8.684;2023-04-01T11:48:40;98013.00;;;12.30
29423;BMP180;16399;51.686;8.684;2023-04-01T11:52:03;98029.00;;;12.30
29423;BMP180;16399;51.686;8.684;2023-04-01T11:58:42;98036.00;;;12.60
29423;BMP180;16399;51.686;8.684;2023-04-01T12:01:50;98044.00;;;12.60
29423;BMP180;16399;51.686;8.684;2023-04-01T12:05:04;98051.00;;;12.40
29423;BMP180;16399;51.686;8.684;2023-04-01T12:08:23;98053.00;;;12.20
29423;BMP180;16399;51.686;8.684;2023-04-01T12:11:58;98056.00;;;11.90
29423;BMP180;16399;51.686;8.684;2023-04-01T12:15:32;98059.00;;;11.50
29423;BMP180;16399;51.686;8.684;2023-04-01T12:18:48;98059.00;;;11.30
29423;BMP180;16399;51.686;8.684;2023-04-01T12:22:10;98067.00;;;11.20
29423;BMP180;16399;51.686;8.684;2023-04-01T12:35:26;98087.00;;;11.30
29423;BMP180;16399;51.686;8.684;2023-04-01T12:42:28;98081.00;;;11.60
29423;BMP180;16399;51.686;8.684;2023-04-01T12:45:30;98088.00;;;11.80
29423;BMP180;16399;51.686;8.684;2023-04-01T12:48:52;98092.00;;;12.00
29423;BMP180;16399;51.686;8.684;2023-04-01T12:52:04;98089.00;;;12.20
29423;BMP180;16399;51.686;8.684;2023-04-01T12:55:34;98082.00;;;12.20
29423;BMP180;16399;51.686;8.684;2023-04-01T12:58:54;98094.00;;;12.30
29423;BMP180;16399;51.686;8.684;2023-04-01T13:02:20;98099.00;;;12.20
29423;BMP180;16399;51.686;8.684;2023-04-01T13:09:32;98102.00;;;12.20
29423;BMP180;16399;51.686;8.684;2023-04-01T13:15:49;98109.00;;;12.40
29423;BMP180;16399;51.686;8.684;2023-04-01T13:19:13;98113.00;;;12.40
29423;BMP180;16399;51.686;8.684;2023-04-01T13:22:21;98112.00;;;12.40
29423;BMP180;16399;51.686;8.684;2023-04-01T13:25:32;98125.00;;;12.40
29423;BMP180;16399;51.686;8.684;2023-04-01T13:28:36;98130.00;;;12.40
29423;BMP180;16399;51.686;8.684;2023-04-01T13:31:46;98128.00;;;12.30
29423;BMP180;16399;51.686;8.684;2023-04-01T13:35:08;98129.00;;;12.30
29423;BMP180;16399;51.686;8.684;2023-04-01T13:41:45;98128.00;;;12.30
29423;BMP180;16399;51.686;8.684;2023-04-01T13:44:52;98124.00;;;12.30
29423;BMP180;16399;51.686;8.684;2023-04-01T13:48:16;98140.00;;;12.30
29423;BMP180;16399;51.686;8.684;2023-04-01T13:51:47;98131.00;;;12.20
29423;BMP180;16399;51.686;8.684;2023-04-01T13:58:43;98146.00;;;12.00
29423;BMP180;16399;51.686;8.684;2023-04-01T14:05:17;98151.00;;;11.80
29423;BMP180;16399;51.686;8.684;2023-04-01T14:11:45;98159.00;;;11.70
29423;BMP180;16399;51.686;8.684;2023-04-01T14:15:54;98167.00;;;11.60
29423;BMP180;16399;51.686;8.684;2023-04-01T14:21:47;98176.00;;;11.40
29423;BMP180;16399;51.686;8.684;2023-04-01T14:28:36;98182.00;;;11.20
29423;BMP180;16399;51.686;8.684;2023-04-01T14:31:59;98188.00;;;11.10
29423;BMP180;16399;51.686;8.684;2023-04-01T14:38:26;98182.00;;;11.10
29423;BMP180;16399;51.686;8.684;2023-04-01T14:41:42;98182.00;;;11.10
29423;BMP180;16399;51.686;8.684;2023-04-01T14:48:30;98199.00;;;10.90
29423;BMP180;16399;51.686;8.684;2023-04-01T14:51:34;98208.00;;;10.90
29423;BMP180;16399;51.686;8.684;2023-04-01T14:54:41;98206.00;;;11.00
29423;BMP180;16399;51.686;8.684;2023-04-01T14:57:57;98203.00;;;11.10
29423;BMP180;16399;51.686;8.684;2023-04-01T15:04:36;98217.00;;;11.30
29423;BMP180;16399;51.686;8.684;2023-04-01T15:17:50;98218.00;;;11.60
29423;BMP180;16399;51.686;8.684;2023-04-01T15:24:41;98223.00;;;11.70
29423;BMP180;16399;51.686;8.684;2023-04-01T15:31:15;98236.00;;;11.60
29423;BMP180;16399;51.686;8.684;2023-04-01T15:37:43;98251.00;;;11.50
29423;BMP180;16399;51.686;8.684;2023-04-01T15:41:00;98249.00;;;11.40
29423;BMP180;16399;51.686;8.684;2023-04-01T15:43:59;98254.00;;;11.40
29423;BMP180;16399;51.686;8.684;2023-04-01T15:47:16;98258.00;;;11.30
29423;BMP180;16399;51.686;8.684;2023-04-01T15:50:43;98269.00;;;11.30
29423;BMP180;16399;51.686;8.684;2023-04-01T15:53:54;98260.00;;;11.30
29423;BMP180;16399;51.686;8.684;2023-04-01T16:00:30;98280.00;;;11.10
29423;BMP180;16399;51.686;8.684;2023-04-01T16:03:37;98283.00;;;11.10
29423;BMP180;16399;51.686;8.684;2023-04-01T16:10:36;98302.00;;;11.10
29423;BMP180;16399;51.686;8.684;2023-04-01T16:13:55;98298.00;;;11.20
29423;BMP180;16399;51.686;8.684;2023-04-01T16:24:02;98310.00;;;11.30
29423;BMP180;16399;51.686;8.684;2023-04-01T16:27:24;98311.00;;;11.30
29423;BMP180;16399;51.686;8.684;2023-04-01T16:30:40;98321.00;;;11.30
29423;BMP180;16399;51.686;8.684;2023-04-01T16:37:05;98329.00;;;11.20
29423;BMP180;16399;51.686;8.684;2023-04-01T16:43:44;98346.00;;;11.20
29423;BMP180;16399;51.686;8.684;2023-04-01T16:46:56;98341.00;;;11.10
29423;BMP180;16399;51.686;8.684;2023-04-01T16:50:14;98345.00;;;11.00
29423;BMP180;16399;51.686;8.684;2023-04-01T16:53:25;98355.00;;;11.00
29423;BMP180;16399;51.686;8.684;2023-04-01T16:56:28;98353.00;;;10.90
29423;BMP180;16399;51.686;8.684;2023-04-01T16:59:40;98370.00;;;10.80
29423;BMP180;16399;51.686;8.684;2023-04-01T17:02:50;98376.00;;;10.80
29423;BMP180;16399;51.686;8.684;2023-04-01T17:06:01;98366.00;;;10.80
29423;BMP180;16399;51.686;8.684;2023-04-01T17:09:09;98385.00;;;10.80
29423;BMP180;16399;51.686;8.684;2023-04-01T17:12:27;98395.00;;;10.70
29423;BMP180;16399;51.686;8.684;2023-04-01T17:15:41;98393.00;;;10.70
29423;BMP180;16399;51.686;8.684;2023-04-01T17:21:57;98410.00;;;10.70
29423;BMP180;16399;51.686;8.684;2023-04-01T17:29:13;98418.00;;;10.70
29423;BMP180;16399;51.686;8.684;2023-04-01T17:32:03;98422.00;;;10.70
29423;BMP180;16399;51.686;8.684;2023-04-01T17:35:29;98429.00;;;10.70
29423;BMP180;16399;51.686;8.684;2023-04-01T17:41:57;98439.00;;;10.60
29423;BMP180;16399;51.686;8.684;2023-04-01T17:45:04;98452.00;;;10.60
29423;BMP180;16399;51.686;8.684;2023-04-01T17:48:49;98444.00;;;10.60
29423;BMP180;16399;51.686;8.684;2023-04-01T17:51:54;98464.00;;;10.50
29423;BMP180;16399;51.686;8.684;2023-04-01T17:55:32;98466.00;;;10.50
29423;BMP180;16399;51.686;8.684;2023-04-01T17:58:37;98469.00;;;10.50
29423;BMP180;16399;51.686;8.684;2023-04-01T18:01:40;98476.00;;;10.50
29423;BMP180;16399;51.686;8.684;2023-04-01T18:11:44;98491.00;;;10.50
29423;BMP180;16399;51.686;8.684;2023-04-01T18:15:05;98505.00;;;10.50
29423;BMP180;16399;51.686;8.684;2023-04-01T18:18:18;98509.00;;;10.50
29423;BMP180;16399;51.686;8.684;2023-04-01T18:21:23;98512.00;;;10.50
29423;BMP180;16399;51.686;8.684;2023-04-01T18:24:33;98523.00;;;10.50
29423;BMP180;16399;51.686;8.684;2023-04-01T18:28:27;98534.00;;;10.40
29423;BMP180;16399;51.686;8.684;2023-04-01T18:30:49;98527.00;;;10.40
29423;BMP180;16399;51.686;8.684;2023-04-01T18:34:10;98531.00;;;10.40
29423;BMP180;16399;51.686;8.684;2023-04-01T18:37:34;98555.00;;;10.30
29423;BMP180;16399;51.686;8.684;2023-04-01T18:44:16;98563.00;;;10.20
29423;BMP180;16399;51.686;8.684;2023-04-01T18:50:56;98583.00;;;10.20
29423;BMP180;16399;51.686;8.684;2023-04-01T18:54:02;98580.00;;;10.10
29423;BMP180;16399;51.686;8.684;2023-04-01T18:57:16;98593.00;;;10.20
29423;BMP180;16399;51.686;8.684;2023-04-01T19:00:32;98597.00;;;10.10
29423;BMP180;16399;51.686;8.684;2023-04-01T19:06:56;98614.00;;;10.10
29423;BMP180;16399;51.686;8.684;2023-04-01T19:19:55;98637.00;;;10.10
29423;BMP180;16399;51.686;8.684;2023-04-01T19:23:28;98640.00;;;10.10
29423;BMP180;16399;51.686;8.684;2023-04-01T19:26:27;98648.00;;;10.00
29423;BMP180;16399;51.686;8.684;2023-04-01T19:36:24;98653.00;;;10.00
29423;BMP180;16399;51.686;8.684;2023-04-01T19:39:45;98662.00;;;10.00
29423;BMP180;16399;51.686;8.684;2023-04-01T19:43:03;98672.00;;;9.90
29423;BMP180;16399;51.686;8.684;2023-04-01T19:52:40;98685.00;;;9.20
29423;BMP180;16399;51.686;8.684;2023-04-01T19:56:30;98694.00;;;9.00
29423;BMP180;16399;51.686;8.684;2023-04-01T19:59:18;98703.00;;;9.00
29423;BMP180;16399;51.686;8.684;2023-04-01T20:02:25;98712.00;;;8.90
29423;BMP180;16399;51.686;8.684;2023-04-01T20:05:38;98726.00;;;8.80
29423;BMP180;16399;51.686;8.684;2023-04-01T20:08:52;98728.00;;;8.80
29423;BMP180;16399;51.686;8.684;2023-04-01T20:12:06;98747.00;;;8.70
29423;BMP180;16399;51.686;8.684;2023-04-01T20:18:35;98751.00;;;8.70
29423;BMP180;16399;51.686;8.684;2023-04-01T20:21:45;98759.00;;;8.60
29423;BMP180;16399;51.686;8.684;2023-04-01T20:24:49;98773.00;;;8.50
29423;BMP180;16399;51.686;8.684;2023-04-01T20:31:27;98783.00;;;8.40
29423;BMP180;16399;51.686;8.684;2023-04-01T20:35:01;98788.00;;;8.30
29423;BMP180;16399;51.686;8.684;2023-04-01T20:38:29;98808.00;;;8.20
29423;BMP180;16399;51.686;8.684;2023-04-01T20:41:45;98814.00;;;8.10
29423;BMP180;16399;51.686;8.684;2023-04-01T20:44:55;98817.00;;;8.10
29423;BMP180;16399;51.686;8.684;2023-04-01T20:48:21;98831.00;;;8.00
29423;BMP180;16399;51.686;8.684;2023-04-01T20:51:30;98828.00;;;8.00
29423;BMP180;16399;51.686;8.684;2023-04-01T20:54:47;98836.00;;;8.00
29423;BMP180;16399;51.686;8.684;2023-04-01T21:01:54;98850.00;;;7.80
29423;BMP180;16399;51.686;8.684;2023-04-01T21:11:53;98866.00;;;7.70
29423;BMP180;16399;51.686;8.684;2023-04-01T21:25:02;98892.00;;;7.50
29423;BMP180;16399;51.686;8.684;2023-04-01T21:28:20;98903.00;;;7.50
29423;BMP180;16399;51.686;8.684;2023-04-01T21:38:20;98912.00;;;7.40
29423;BMP180;16399;51.686;8.684;2023-04-01T21:41:23;98924.00;;;7.40
29423;BMP180;16399;51.686;8.684;2023-04-01T21:48:25;98940.00;;;7.30
29423;BMP180;16399;51.686;8.684;2023-04-01T21:55:17;98955.00;;;7.20
29423;BMP180;16399;51.686;8.684;2023-04-01T21:58:47;98965.00;;;7.10
29423;BMP180;16399;51.686;8.684;2023-04-01T22:05:28;98979.00;;;7.00
29423;BMP180;16399;51.686;8.684;2023-04-01T22:11:52;99003.00;;;6.90
29423;BMP180;16399;51.686;8.684;2023-04-01T22:15:24;99005.00;;;6.90
29423;BMP180;16399;51.686;8.684;2023-04-01T22:18:34;99005.00;;;6.80
29423;BMP180;16399;51.686;8.684;2023-04-01T22:21:51;99012.00;;;6.90
29423;BMP180;16399;51.686;8.684;2023-04-01T22:24:58;99024.00;;;6.80
29423;BMP180;16399;51.686;8.684;2023-04-01T22:28:05;99025.00;;;6.80
29423;BMP180;16399;51.686;8.684;2023-04-01T22:31:08;99042.00;;;6.80
29423;BMP180;16399;51.686;8.684;2023-04-01T22:34:16;99043.00;;;6.80
29423;BMP180;16399;51.686;8.684;2023-04-01T22:43:44;99053.00;;;6.80
29423;BMP180;16399;51.686;8.684;2023-04-01T22:46:53;99061.00;;;6.80
29423;BMP180;16399;51.686;8.684;2023-04-01T22:50:09;99068.00;;;6.80
29423;BMP180;16399;51.686;8.684;2023-04-01T22:53:34;99066.00;;;6.70
29423;BMP180;16399;51.686;8.684;2023-04-01T22:56:38;99078.00;;;6.70
29423;BMP180;16399;51.686;8.684;2023-04-01T23:06:15;99098.00;;;6.70
29423;BMP180;16399;51.686;8.684;2023-04-01T23:09:36;99100.00;;;6.70
29423;BMP180;16399;51.686;8.684;2023-04-01T23:12:40;99108.00;;;6.60
29423;BMP180;16399;51.686;8.684;2023-04-01T23:15:43;99109.00;;;6.50
29423;BMP180;16399;51.686;8.684;2023-04-01T23:18:57;99113.00;;;6.50
29423;BMP180;16399;51.686;8.684;2023-04-01T23:22:07;99124.00;;;6.40
29423;BMP180;16399;51.686;8.684;2023-04-01T23:28:42;99138.00;;;6.30
29423;BMP180;16399;51.686;8.684;2023-04-01T23:31:56;99143.00;;;6.20
29423;BMP180;16399;51.686;8.684;2023-04-01T23:34:59;99160.00;;;6.30
29423;BMP180;16399;51.686;8.684;2023-04-01T23:37:58;99163.00;;;6.20
29423;BMP180;16399;51.686;8.684;2023-04-01T23:41:01;99160.00;;;6.10
29423;BMP180;16399;51.686;8.684;2023-04-01T23:44:08;99168.00;;;6.10
29423;BMP180;16399;51.686;8.684;2023-04-01T23:47:16;99179.00;;;6.00
29423;BMP180;16399;51.686;8.684;2023-04-01T23:50:24;99184.00;;;6.00
29423;BMP180;16399;51.686;8.684;2023-04-01T23:53:35;99195.00;;;6.00